createdAt,value
2022-11-26T00:00:14.750Z,72.20
2022-11-26T00:02:42.077Z,82.82
2022-11-26T00:05:13.500Z,88.80
2022-11-26T00:07:42.572Z,86.50
2022-11-26T00:10:20.059Z,77.97
2022-11-26T00:12:47.761Z,82.00
2022-11-26T00:15:34.668Z,90.17
2022-11-26T00:18:01.672Z,82.27
2022-11-26T00:20:31.421Z,82.90
2022-11-26T00:23:02.582Z,81.33
2022-11-26T00:25:59.462Z,78.70
2022-11-26T00:28:36.418Z,83.40
2022-11-26T00:31:06.379Z,79.33
2022-11-26T00:33:33.774Z,79.30
2022-11-26T00:36:14.070Z,78.13
2022-11-26T00:38:41.265Z,80.33
2022-11-26T00:41:22.595Z,80.00
2022-11-26T00:43:49.912Z,75.60
2022-11-26T00:46:19.510Z,79.40
2022-11-26T00:48:46.666Z,80.57
2022-11-26T00:51:18.185Z,84.40
2022-11-26T00:53:46.545Z,82.43
2022-11-26T00:56:16.218Z,82.03
2022-11-26T00:58:43.233Z,75.20
2022-11-26T01:01:13.187Z,72.60
2022-11-26T01:03:42.952Z,71.43
2022-11-26T01:06:34.203Z,77.03
2022-11-26T01:09:02.005Z,70.83
2022-11-26T01:11:29.113Z,70.53
2022-11-26T01:13:56.551Z,67.17
2022-11-26T01:16:29.547Z,70.40
2022-11-26T01:18:58.984Z,68.03
2022-11-26T01:21:28.794Z,66.77
2022-11-26T01:23:56.044Z,68.77
2022-11-26T01:26:27.655Z,71.40
2022-11-26T01:28:55.577Z,64.87
2022-11-26T01:31:25.656Z,71.87
2022-11-26T01:33:53.089Z,75.23
2022-11-26T01:36:40.744Z,72.10
2022-11-26T01:39:21.377Z,66.10
2022-11-26T01:42:28.156Z,73.90
2022-11-26T01:44:57.282Z,69.70
2022-11-26T01:47:28.581Z,71.53
2022-11-26T01:50:35.336Z,70.57
2022-11-26T01:53:33.080Z,68.17
2022-11-26T01:56:05.453Z,73.35
2022-11-26T01:58:39.878Z,73.13
2022-11-26T02:01:07.515Z,74.03
2022-11-26T02:03:43.160Z,69.63
2022-11-26T02:06:19.555Z,64.20
2022-11-26T02:08:47.189Z,72.30
2022-11-26T02:11:19.333Z,69.63
2022-11-26T02:13:51.986Z,68.47
2022-11-26T02:16:59.130Z,69.50
2022-11-26T02:20:05.982Z,68.23
2022-11-26T02:23:12.753Z,65.63
2022-11-26T02:26:19.530Z,68.37
2022-11-26T02:29:26.343Z,63.37
2022-11-26T02:32:14.128Z,62.70
2022-11-26T02:35:04.713Z,66.03
2022-11-26T02:37:39.758Z,61.73
2022-11-26T02:40:09.119Z,62.55
2022-11-26T02:42:36.977Z,58.73
2022-11-26T02:45:26.648Z,58.60
2022-11-26T02:47:55.953Z,60.77
2022-11-26T02:50:28.416Z,65.10
2022-11-26T02:52:58.377Z,63.77
2022-11-26T02:55:31.666Z,68.33
2022-11-26T02:57:59.210Z,67.33
2022-11-26T03:00:26.514Z,69.83
2022-11-26T03:03:04.038Z,61.53
2022-11-26T03:05:35.137Z,62.17
2022-11-26T03:08:04.830Z,60.43
2022-11-26T03:10:32.490Z,59.23
2022-11-26T03:12:59.936Z,55.93
2022-11-26T03:15:30.031Z,61.27
2022-11-26T03:17:57.212Z,62.83
2022-11-26T03:20:24.522Z,59.10
2022-11-26T03:22:54.450Z,61.20
2022-11-26T03:25:21.528Z,60.73
2022-11-26T03:27:48.511Z,56.63
2022-11-26T03:30:15.749Z,56.80
2022-11-26T03:32:42.941Z,56.37
2022-11-26T03:35:12.852Z,55.33
2022-11-26T03:37:40.234Z,53.63
2022-11-26T03:40:11.026Z,54.40
2022-11-26T03:42:38.204Z,54.73
2022-11-26T03:45:06.336Z,54.58
2022-11-26T03:47:36.422Z,53.20
2022-11-26T03:50:04.347Z,52.23
2022-11-26T03:52:31.445Z,49.80
2022-11-26T03:55:00.733Z,51.83
2022-11-26T03:57:27.810Z,50.50
2022-11-26T03:59:54.855Z,52.23
2022-11-26T04:02:24.796Z,53.43
2022-11-26T04:04:55.073Z,52.10
2022-11-26T04:07:22.229Z,51.07
2022-11-26T04:09:49.387Z,55.17
2022-11-26T04:12:16.504Z,49.77
2022-11-26T04:14:43.582Z,52.77
2022-11-26T04:17:10.816Z,50.70
2022-11-26T04:19:38.021Z,50.33
2022-11-26T04:22:05.086Z,53.37
2022-11-26T04:24:32.231Z,46.83
2022-11-26T04:27:02.277Z,45.07
2022-11-26T04:29:29.483Z,42.23
2022-11-26T04:31:56.678Z,44.37
2022-11-26T04:34:26.283Z,45.27
2022-11-26T04:36:53.342Z,42.97
2022-11-26T04:39:20.505Z,41.87
2022-11-26T04:44:31.414Z,38.97
2022-11-26T04:47:01.560Z,42.00
2022-11-26T04:49:30.169Z,43.00
2022-11-26T04:51:57.476Z,41.80
2022-11-26T04:54:24.630Z,42.00
2022-11-26T04:56:51.742Z,41.47
2022-11-26T04:59:18.897Z,40.47
2022-11-26T05:01:49.121Z,41.40
2022-11-26T05:04:17.571Z,41.63
2022-11-26T05:06:48.738Z,42.53
2022-11-26T05:09:46.788Z,40.63
2022-11-26T05:12:32.852Z,41.90
2022-11-26T05:15:16.531Z,36.97
2022-11-26T05:17:47.709Z,36.80
2022-11-26T05:20:28.740Z,35.00
2022-11-26T05:23:07.536Z,35.67
2022-11-26T05:25:47.810Z,32.60
2022-11-26T05:28:18.269Z,30.73
2022-11-26T05:30:45.494Z,34.77
2022-11-26T05:33:39.399Z,34.40
2022-11-26T05:36:12.729Z,31.43
2022-11-26T05:38:57.568Z,33.27
2022-11-26T05:41:36.726Z,31.92
2022-11-26T05:44:21.690Z,34.50
2022-11-26T05:47:20.628Z,30.35
2022-11-26T05:58:32.392Z,32.07
2022-11-26T06:04:59.330Z,31.63
2022-11-26T06:07:32.704Z,30.53
2022-11-26T06:10:15.392Z,30.33
2022-11-26T06:13:01.607Z,29.57
2022-11-26T06:15:33.004Z,28.30
2022-11-26T06:18:05.936Z,25.10
2022-11-26T06:21:09.425Z,25.70
2022-11-26T06:23:42.403Z,24.10
2022-11-26T06:26:33.618Z,25.47
2022-11-26T06:29:05.128Z,25.20
2022-11-26T06:31:36.298Z,24.70
2022-11-26T06:34:04.851Z,26.70
2022-11-26T06:36:42.312Z,25.57
2022-11-26T06:39:15.352Z,24.43
2022-11-26T06:41:51.189Z,25.43
2022-11-26T06:44:20.446Z,26.63
2022-11-26T06:47:08.068Z,24.30
2022-11-26T06:49:35.150Z,24.67
2022-11-26T06:52:15.245Z,23.87
2022-11-26T06:54:51.993Z,23.87
2022-11-26T06:57:21.756Z,26.83
2022-11-26T06:59:49.008Z,23.77
2022-11-26T07:02:16.245Z,24.87
2022-11-26T07:04:45.861Z,23.87
2022-11-26T07:07:16.773Z,25.63
2022-11-26T07:09:55.662Z,25.20
2022-11-26T07:12:27.333Z,23.30
2022-11-26T07:14:57.271Z,25.07
2022-11-26T07:17:30.910Z,24.77
2022-11-26T07:20:04.929Z,26.13
2022-11-26T07:28:13.330Z,26.53
2022-11-26T07:30:49.221Z,24.83
2022-11-26T07:39:25.764Z,27.43
2022-11-26T07:45:02.351Z,27.57
2022-11-26T07:50:53.006Z,25.53
2022-11-26T07:53:25.976Z,25.20
2022-11-26T07:56:11.252Z,25.53
2022-11-26T07:58:52.950Z,22.88
2022-11-26T08:01:33.731Z,25.70
2022-11-26T08:04:08.449Z,24.57
2022-11-26T08:06:58.873Z,28.20
2022-11-26T08:09:35.850Z,28.40
2022-11-26T08:12:16.055Z,28.03
2022-11-26T08:15:13.015Z,27.07
2022-11-26T08:17:50.617Z,24.90
2022-11-26T08:20:29.376Z,23.93
2022-11-26T08:23:05.656Z,25.50
2022-11-26T08:29:45.894Z,22.73
2022-11-26T08:32:33.169Z,22.95
2022-11-26T08:36:28.461Z,23.90
2022-11-26T08:39:00.320Z,25.47
2022-11-26T08:47:17.745Z,24.30
2022-11-26T08:49:44.805Z,32.37
2022-11-26T08:53:03.365Z,30.60
2022-11-26T09:03:03.447Z,27.30
2022-11-26T09:09:28.952Z,26.70
2022-11-26T09:22:00.753Z,23.65
2022-11-26T09:24:31.974Z,22.83
2022-11-26T09:30:05.719Z,22.63
2022-11-26T09:32:36.477Z,23.40
2022-11-26T09:35:13.836Z,25.53
2022-11-26T09:37:53.994Z,24.63
2022-11-26T09:41:10.856Z,24.03
2022-11-26T09:50:52.634Z,24.03
2022-11-26T09:53:43.844Z,22.37
2022-11-26T09:56:33.950Z,22.83
2022-11-26T09:59:51.517Z,22.10
2022-11-26T10:04:30.208Z,22.10
2022-11-26T10:09:39.306Z,20.93
2022-11-26T10:13:17.966Z,22.27
2022-11-26T10:22:00.336Z,19.70
2022-11-26T10:24:36.624Z,19.67
2022-11-26T10:27:27.115Z,19.50
2022-11-26T10:30:00.418Z,17.83
2022-11-26T10:32:40.333Z,19.23
2022-11-26T10:35:18.804Z,20.10
2022-11-26T10:37:49.455Z,19.57
2022-11-26T10:40:48.619Z,20.40
2022-11-26T10:43:30.742Z,20.07
2022-11-26T10:46:28.114Z,20.20
2022-11-26T10:49:18.249Z,19.27
2022-11-26T10:51:54.588Z,22.20
2022-11-26T10:57:39.269Z,20.80
2022-11-26T11:00:52.469Z,20.10
2022-11-26T11:04:08.500Z,20.90
2022-11-26T11:06:45.660Z,21.73
2022-11-26T11:15:13.133Z,19.55
2022-11-26T11:20:01.216Z,18.03
2022-11-26T11:22:56.440Z,19.13
2022-11-26T11:34:49.283Z,19.40
2022-11-26T11:37:59.544Z,18.23
2022-11-26T11:40:30.611Z,22.87
2022-11-26T11:43:23.832Z,21.87
2022-11-26T11:46:41.472Z,21.57
2022-11-26T11:49:48.302Z,24.33
2022-11-26T11:52:55.084Z,23.07
2022-11-26T12:04:00.812Z,20.47
2022-11-26T12:06:54.661Z,20.47
2022-11-26T12:09:32.579Z,21.70
2022-11-26T12:12:22.965Z,22.30
2022-11-26T12:15:15.352Z,19.93
2022-11-26T12:17:50.035Z,21.50
2022-11-26T12:20:28.370Z,23.38
2022-11-26T12:23:35.058Z,21.90
2022-11-26T12:28:46.954Z,21.50
2022-11-26T12:31:44.264Z,23.07
2022-11-26T12:34:34.618Z,23.87
2022-11-26T12:37:05.499Z,24.27
2022-11-26T12:40:12.258Z,23.73
2022-11-26T12:43:19.053Z,23.00
2022-11-26T12:46:08.812Z,22.03
2022-11-26T12:49:00.647Z,23.77
2022-11-26T12:52:07.391Z,24.07
2022-11-26T12:57:25.526Z,23.37
2022-11-26T12:59:58.891Z,23.67
2022-11-26T13:02:30.250Z,23.97
2022-11-26T13:04:58.997Z,21.80
2022-11-26T13:08:05.753Z,23.33
2022-11-26T13:11:12.550Z,23.93
2022-11-26T13:14:07.830Z,23.87
2022-11-26T13:16:58.141Z,24.63
2022-11-26T13:20:04.915Z,25.63
2022-11-26T13:23:11.657Z,24.30
2022-11-26T13:26:18.470Z,24.40
2022-11-26T13:29:15.889Z,23.57
2022-11-26T13:32:14.449Z,26.60
2022-11-26T13:35:16.573Z,21.77
2022-11-26T13:38:23.300Z,23.53
2022-11-26T13:49:26.906Z,27.50
2022-11-26T13:52:17.263Z,29.30
2022-11-26T13:54:57.343Z,29.77
2022-11-26T13:57:31.480Z,27.80
2022-11-26T13:59:59.944Z,27.33
2022-11-26T14:02:47.582Z,27.50
2022-11-26T14:05:16.723Z,76.00
2022-11-26T14:07:46.441Z,34.07
2022-11-26T14:10:53.198Z,33.60
2022-11-26T14:15:55.717Z,33.53
2022-11-26T14:19:03.129Z,36.70
2022-11-26T14:21:30.741Z,30.97
2022-11-26T14:24:01.118Z,33.80
2022-11-26T14:26:31.439Z,33.57
2022-11-26T14:29:17.696Z,33.53
2022-11-26T14:32:08.938Z,28.83
2022-11-26T14:34:43.429Z,33.30
2022-11-26T14:37:16.410Z,35.75
2022-11-26T14:39:43.738Z,34.50
2022-11-26T14:42:17.626Z,36.30
2022-11-26T14:44:44.970Z,36.83
2022-11-26T14:47:20.007Z,35.37
2022-11-26T14:49:54.454Z,37.22
2022-11-26T14:52:26.529Z,36.63
2022-11-26T14:54:56.597Z,41.00
2022-11-26T14:57:30.045Z,36.97
2022-11-26T15:00:36.795Z,39.53
2022-11-26T15:03:04.400Z,42.03
2022-11-26T15:05:34.181Z,43.53
2022-11-26T15:08:14.251Z,44.40
2022-11-26T15:11:07.238Z,42.00
2022-11-26T15:13:44.542Z,44.50
2022-11-26T15:16:34.031Z,43.47
2022-11-26T15:19:02.874Z,40.83
2022-11-26T15:21:30.046Z,38.37
2022-11-26T15:24:00.565Z,37.07
2022-11-26T15:26:33.300Z,37.27
2022-11-26T15:29:00.694Z,39.87
2022-11-26T15:31:43.722Z,53.10
2022-11-26T15:34:13.565Z,42.60
2022-11-26T15:36:40.691Z,42.43
2022-11-26T15:39:22.680Z,40.47
2022-11-26T15:41:50.339Z,40.97
2022-11-26T15:44:25.165Z,40.90
2022-11-26T15:46:55.030Z,42.55
2022-11-26T15:49:27.418Z,37.40
2022-11-26T15:52:00.229Z,42.50
2022-11-26T15:54:49.665Z,43.57
2022-11-26T15:57:26.929Z,40.73
2022-11-26T15:59:57.682Z,41.85
2022-11-26T16:02:27.836Z,44.43
2022-11-26T16:04:58.039Z,45.73
2022-11-26T16:07:27.830Z,46.33
2022-11-26T16:10:35.791Z,43.73
2022-11-26T16:13:20.666Z,50.60
2022-11-26T16:15:51.512Z,56.07
2022-11-26T16:18:22.753Z,55.50
2022-11-26T16:20:50.020Z,53.17
2022-11-26T16:23:28.352Z,50.43
2022-11-26T16:26:17.697Z,54.77
2022-11-26T16:28:46.413Z,55.00
2022-11-26T16:31:14.879Z,52.73
2022-11-26T16:33:42.569Z,56.07
2022-11-26T16:36:19.072Z,54.73
2022-11-26T16:38:46.331Z,50.20
2022-11-26T16:41:14.493Z,54.40
2022-11-26T16:43:41.771Z,53.67
2022-11-26T16:46:20.237Z,56.37
2022-11-26T16:48:48.169Z,49.20
2022-11-26T16:51:15.692Z,48.43
2022-11-26T16:53:43.430Z,48.17
2022-11-26T16:56:22.321Z,57.70
2022-11-26T16:58:50.185Z,57.93
2022-11-26T17:01:17.303Z,65.97
2022-11-26T17:03:44.689Z,61.83
2022-11-26T17:06:15.875Z,57.23
2022-11-26T17:08:49.194Z,56.37
2022-11-26T17:11:17.210Z,56.03
2022-11-26T17:13:44.346Z,63.30
2022-11-26T17:16:15.048Z,72.43
2022-11-26T17:18:42.645Z,70.23
2022-11-26T17:21:10.005Z,65.60
2022-11-26T17:23:37.385Z,62.33
2022-11-26T17:26:15.842Z,56.87
2022-11-26T17:28:42.956Z,56.53
2022-11-26T17:31:10.106Z,57.23
2022-11-26T17:33:37.246Z,58.87
2022-11-26T17:36:10.151Z,56.43
2022-11-26T17:38:37.912Z,50.37
2022-11-26T17:41:06.523Z,51.67
2022-11-26T17:43:33.562Z,48.70
2022-11-26T17:46:02.360Z,48.67
2022-11-26T17:48:29.530Z,49.07
2022-11-26T17:50:56.599Z,50.33
2022-11-26T17:53:23.746Z,51.23
2022-11-26T17:55:50.820Z,48.87
2022-11-26T17:58:17.884Z,50.23
2022-11-26T18:00:44.927Z,47.93
2022-11-26T18:03:12.036Z,48.57
2022-11-26T18:05:42.013Z,46.67
2022-11-26T18:08:09.598Z,51.17
2022-11-26T18:10:40.690Z,50.90
2022-11-26T18:13:07.905Z,49.83
2022-11-26T18:15:34.872Z,52.43
2022-11-26T18:18:01.895Z,56.57
2022-11-26T18:20:29.347Z,56.50
2022-11-26T18:22:59.608Z,56.80
2022-11-26T18:25:27.635Z,58.83
2022-11-26T18:27:55.201Z,54.30
2022-11-26T18:30:22.358Z,50.77
2022-11-26T18:32:49.521Z,51.37
2022-11-26T18:35:17.303Z,53.67
2022-11-26T18:37:44.759Z,64.13
2022-11-26T18:40:14.676Z,67.83
2022-11-26T18:42:41.860Z,63.20
2022-11-26T18:45:11.887Z,52.40
2022-11-26T18:47:39.164Z,43.50
2022-11-26T18:50:07.338Z,61.33
2022-11-26T18:52:34.534Z,55.80
2022-11-26T18:55:04.868Z,56.43
2022-11-26T18:57:32.243Z,60.93
2022-11-26T18:59:59.249Z,57.07
2022-11-26T19:02:26.494Z,59.00
2022-11-26T19:04:53.766Z,50.83
2022-11-26T19:07:20.953Z,51.23
2022-11-26T19:09:49.349Z,51.53
2022-11-26T19:12:16.436Z,49.13
2022-11-26T19:14:43.560Z,50.23
2022-11-26T19:17:10.712Z,50.70
2022-11-26T19:19:38.487Z,50.67
2022-11-26T19:22:05.722Z,59.73
2022-11-26T19:24:32.840Z,51.10
2022-11-26T19:26:59.848Z,44.80
2022-11-26T19:29:26.960Z,42.43
2022-11-26T19:31:54.054Z,43.00
2022-11-26T19:34:21.210Z,44.43
2022-11-26T19:36:48.624Z,45.10
2022-11-26T19:39:16.749Z,46.23
2022-11-26T19:41:44.285Z,44.20
2022-11-26T19:44:11.354Z,48.37
2022-11-26T19:46:41.251Z,51.37
2022-11-26T19:49:11.161Z,51.63
2022-11-26T19:51:38.308Z,60.47
2022-11-26T19:54:05.455Z,54.93
2022-11-26T19:56:33.336Z,48.67
2022-11-26T19:59:02.239Z,45.70
2022-11-26T20:01:31.617Z,41.63
2022-11-26T20:04:02.069Z,43.67
2022-11-26T20:06:30.603Z,43.20
2022-11-26T20:08:59.366Z,44.00
2022-11-26T20:11:27.510Z,40.90
2022-11-26T20:13:54.805Z,42.37
2022-11-26T20:16:25.074Z,42.67
2022-11-26T20:18:52.965Z,43.97
2022-11-26T20:21:23.429Z,42.20
2022-11-26T20:23:51.282Z,40.77
2022-11-26T20:26:22.065Z,42.67
2022-11-26T20:28:49.854Z,40.63
2022-11-26T20:31:23.140Z,36.83
2022-11-26T20:33:52.956Z,40.90
2022-11-26T20:36:22.953Z,41.40
2022-11-26T20:38:54.746Z,47.67
2022-11-26T20:41:22.831Z,50.27
2022-11-26T20:43:56.510Z,42.40
2022-11-26T20:46:25.564Z,47.13
2022-11-26T20:48:53.093Z,44.90
2022-11-26T20:51:22.016Z,39.17
2022-11-26T20:53:50.738Z,39.80
2022-11-26T20:56:19.869Z,37.83
2022-11-26T20:58:47.347Z,36.00
2022-11-26T21:01:39.119Z,36.97
2022-11-26T21:04:07.006Z,33.90
2022-11-26T21:06:34.939Z,33.53
2022-11-26T21:09:04.651Z,31.57
2022-11-26T21:11:31.795Z,29.77
2022-11-26T21:14:00.138Z,28.13
2022-11-26T21:16:58.853Z,26.77
2022-11-26T21:19:26.143Z,28.93
2022-11-26T21:21:53.178Z,32.37
2022-11-26T21:24:20.591Z,28.40
2022-11-26T21:26:47.605Z,24.13
2022-11-26T21:29:14.816Z,24.27
2022-11-26T21:31:41.985Z,23.13
2022-11-26T21:34:10.976Z,27.73
2022-11-26T21:36:38.164Z,26.10
2022-11-26T21:39:05.798Z,25.37
2022-11-26T21:41:33.828Z,26.50
2022-11-26T21:44:03.953Z,25.37
2022-11-26T21:46:37.602Z,27.40
2022-11-26T21:49:06.085Z,27.03
2022-11-26T21:51:33.114Z,27.27
2022-11-26T21:54:00.188Z,26.63
2022-11-26T21:56:29.180Z,27.47
2022-11-26T21:58:57.571Z,28.30
2022-11-26T22:01:45.913Z,29.70
2022-11-26T22:04:17.700Z,29.83
2022-11-26T22:06:46.307Z,28.70
2022-11-26T22:09:14.832Z,29.93
2022-11-26T22:11:43.933Z,28.53
2022-11-26T22:14:14.619Z,28.63
2022-11-26T22:16:42.163Z,27.63
2022-11-26T22:19:09.817Z,26.80
2022-11-26T22:21:39.892Z,27.30
2022-11-26T22:24:10.143Z,28.67
2022-11-26T22:26:37.321Z,25.80
2022-11-26T22:29:04.924Z,22.73
2022-11-26T22:31:35.042Z,24.03
2022-11-26T22:34:06.245Z,24.63
2022-11-26T22:36:33.980Z,22.13
2022-11-26T22:39:03.076Z,21.27
2022-11-26T22:41:30.261Z,21.67
2022-11-26T22:44:00.328Z,21.87
2022-11-26T22:46:27.869Z,22.27
2022-11-26T22:49:00.198Z,22.67
2022-11-26T22:51:29.552Z,23.77
2022-11-26T22:54:00.855Z,25.47
2022-11-26T22:56:28.994Z,25.93
2022-11-26T22:58:56.609Z,24.90
2022-11-26T23:01:43.596Z,27.37
2022-11-26T23:04:11.265Z,28.87
2022-11-26T23:06:39.055Z,27.57
2022-11-26T23:09:07.910Z,28.47
2022-11-26T23:11:38.104Z,27.00
2022-11-26T23:14:07.594Z,26.87
2022-11-26T23:16:36.482Z,28.30
2022-11-26T23:19:04.247Z,26.90
2022-11-26T23:21:34.775Z,28.10
2022-11-26T23:24:02.046Z,26.80
2022-11-26T23:26:31.911Z,29.23
2022-11-26T23:29:01.025Z,29.93
2022-11-26T23:31:30.482Z,27.57
2022-11-26T23:33:57.943Z,27.47
2022-11-26T23:36:26.458Z,30.40
2022-11-26T23:38:53.765Z,27.97
2022-11-26T23:41:20.941Z,27.47
2022-11-26T23:43:48.310Z,28.00
2022-11-26T23:46:21.117Z,29.73
2022-11-26T23:48:48.965Z,28.00
2022-11-26T23:51:21.948Z,27.97
2022-11-26T23:53:50.628Z,27.97
2022-11-26T23:56:24.110Z,27.10
2022-11-26T23:58:52.808Z,29.57
